Conti Darwin — CQBC — position and weather

sailwx.info

Track history (hours):
 
Tides and Currents Weather Stations Pressure Air Temp Water Temp Dewpoint Dewpoint Depression Visibility Wind Speed Wind Dir Waves Ship Positions

Conti Darwin

Last reported at 2018-Apr-10 21:34 UTC. Time now 2018-Apr-21 07:59 UTC.
Position S 23°10' W 042°43'.
Warning: this ship's position is 10 days out of date.

Length 278 m; draft 13.5 m.

Type: Ship (hazmat cat A). MMSI: 255805831.

Date/timePositionNaut miles runAvg speedWind from/ knotsBaromVisibWave heightAir tempDewpointWater temp
2018-Apr-10 21:34S 23°10' W 042°43'113.5
2018-Apr-10 21:30S 23°10' W 042°43'613.3
2018-Apr-10 21:00S 23°07' W 042°50'713.3
2018-Apr-10 20:30S 23°04' W 042°57'713.2
2018-Apr-10 20:00S 23°02' W 043°03'612.5
2018-Apr-10 19:30S 22°59' W 043°09'5 9.7
2018-Apr-10 19:00S 22°54' W 043°09'3 6.9
2018-Apr-10 18:30S 22°52' W 043°12'0 0.9
2018-Apr-10 17:58S 22°53' W 043°13'0 0.0
2018-Apr-10 17:30S 22°53' W 043°13'0 0.0
2018-Apr-10 17:00S 22°53' W 043°13'0 0.0
2018-Apr-10 16:30S 22°53' W 043°13'0 0.0
2018-Apr-10 16:00S 22°53' W 043°13'0 0.0
2018-Apr-10 15:29S 22°53' W 043°13'0 0.0
2018-Apr-10 14:59S 22°53' W 043°13'0 0.0
2018-Apr-10 14:29S 22°53' W 043°13'0 0.0
2018-Apr-10 14:00S 22°53' W 043°13'0 0.0
2018-Apr-10 13:29S 22°53' W 043°13'1 1.1
2018-Apr-10 13:00S 22°53' W 043°12'3 5.6
2018-Apr-10 12:30S 22°53' W 043°09'611.7
2018-Apr-10 12:00S 22°59' W 043°09'3 6.9
2018-Apr-10 11:30S 23°02' W 043°06'4 8.7
2018-Apr-10 11:00S 23°03' W 043°01'3 6.4
2018-Apr-10 10:30S 23°04' W 042°58'0 0.2
2018-Apr-10 10:00S 23°04' W 042°58'0 0.1
2018-Apr-10 09:30S 23°04' W 042°58'0 0.0
2018-Apr-10 09:00S 23°04' W 042°58'0 0.0
2018-Apr-10 08:27S 23°04' W 042°58'0 0.0
2018-Apr-10 07:59S 23°04' W 042°58'0 0.0
2018-Apr-10 07:29S 23°04' W 042°58'0 0.0
2018-Apr-10 06:59S 23°04' W 042°58'0 0.0
2018-Apr-10 06:29S 23°04' W 042°58'0 0.0
2018-Apr-10 05:59S 23°04' W 042°58'0 0.0
2018-Apr-10 05:28S 23°04' W 042°58'0 0.0
2018-Apr-10 04:58S 23°04' W 042°58'0 0.0
2018-Apr-10 04:28S 23°04' W 042°58'0 0.0
2018-Apr-10 03:46S 23°04' W 042°58'0 0.0
2018-Apr-10 03:31S 23°04' W 042°58'0 0.0
2018-Apr-10 03:00S 23°04' W 042°58'0 0.1
2018-Apr-10 02:30S 23°04' W 042°58'0 0.0
2018-Apr-10 02:00S 23°04' W 042°58'0 0.0
2018-Apr-10 01:30S 23°04' W 042°58'0 0.0
2018-Apr-10 00:59S 23°04' W 042°58'0 0.0
2018-Apr-10 00:29S 23°04' W 042°58'0 0.0
2018-Apr-09 23:59S 23°04' W 042°58'0 0.0
2018-Apr-09 23:29S 23°04' W 042°58'0 0.0
2018-Apr-09 22:59S 23°04' W 042°58'0 0.0
2018-Apr-09 22:28S 23°04' W 042°58'0 0.0
2018-Apr-09 21:58S 23°04' W 042°58'0 0.1
2018-Apr-09 21:28S 23°04' W 042°58'0 0.1
2018-Apr-09 20:58S 23°04' W 042°58'0 0.1
2018-Apr-09 20:21S 23°04' W 042°58'0 0.1
2018-Apr-09 20:00S 23°04' W 042°58'0 0.0
2018-Apr-09 19:18S 23°04' W 042°58'0 0.1
2018-Apr-09 18:57S 23°04' W 042°58'0 0.1
2018-Apr-09 18:30S 23°04' W 042°58'0 0.0
2018-Apr-09 17:59S 23°04' W 042°58'0 0.0
2018-Apr-09 17:26S 23°04' W 042°58'0 0.0
2018-Apr-09 16:53S 23°04' W 042°58'0 0.0
2018-Apr-09 16:26S 23°04' W 042°58'0 0.0
2018-Apr-09 15:59S 23°04' W 042°58'0 0.0
2018-Apr-09 15:28S 23°04' W 042°58'0 0.1
2018-Apr-09 14:59S 23°04' W 042°58'0 0.1
2018-Apr-09 14:29S 23°04' W 042°58'0 0.1
2018-Apr-09 13:59S 23°04' W 042°58'0 0.1
2018-Apr-09 13:29S 23°04' W 042°58'0 0.1
2018-Apr-09 12:59S 23°04' W 042°58'0 0.1
2018-Apr-09 12:28S 23°04' W 042°58'0 0.1
2018-Apr-09 11:58S 23°04' W 042°58'0 0.1
2018-Apr-09 11:16S 23°04' W 042°58'0 0.1
2018-Apr-09 10:58S 23°04' W 042°58'0 0.1
2018-Apr-09 10:27S 23°04' W 042°58'0 0.0
2018-Apr-09 10:00S 23°04' W 042°58'0 0.0
2018-Apr-09 09:30S 23°04' W 042°58'0 0.6
2018-Apr-09 09:00S 23°04' W 042°58'5 9.7
2018-Apr-09 08:31S 23°05' W 043°03'3112.2
2018-Apr-09 06:00S 23°20' W 043°32'16310.8
2018-Apr-08 14:52S 24°06' W 046°23'512.0
2018-Apr-08 14:29S 24°02' W 046°21'4 7.6
2018-Apr-08 14:00S 23°60' W 046°18'3 6.3
2018-Apr-08 13:30S 23°56' W 046°19'1 2.1
2018-Apr-08 13:00S 23°56' W 046°19'0 0.0
2018-Apr-08 12:04S 23°56' W 046°19'0 0.0
2018-Apr-08 11:46S 23°56' W 046°19'0 0.0
2018-Apr-08 11:28S 23°56' W 046°19'0 0.0
2018-Apr-08 10:58S 23°56' W 046°19'0 0.0
2018-Apr-08 10:28S 23°56' W 046°19'0 0.0
2018-Apr-08 09:58S 23°56' W 046°19'0 0.0
2018-Apr-08 09:27S 23°56' W 046°19'0 0.0
2018-Apr-08 08:57S 23°56' W 046°19'0 0.0
2018-Apr-08 08:27S 23°56' W 046°19'0 0.0
2018-Apr-08 07:57S 23°56' W 046°19'0 0.0
2018-Apr-08 07:21S 23°56' W 046°19'0 0.0
2018-Apr-08 07:00S 23°56' W 046°19'0 0.0
2018-Apr-08 06:27S 23°56' W 046°19'0 0.0
2018-Apr-08 05:58S 23°56' W 046°19'0 0.0
2018-Apr-08 05:16S 23°56' W 046°19'0 0.0
2018-Apr-08 04:58S 23°56' W 046°19'0 0.0
2018-Apr-08 04:16S 23°56' W 046°19'0 0.0
2018-Apr-08 03:58S 23°56' W 046°19'0 0.0
2018-Apr-08 03:15S 23°56' W 046°19'0 0.0
2018-Apr-08 02:45S 23°56' W 046°19'0 0.0
2018-Apr-08 02:15S 23°56' W 046°19'0 0.0
2018-Apr-08 01:51S 23°56' W 046°19'0 0.0
2018-Apr-08 01:30S 23°56' W 046°19'0 0.0
2018-Apr-08 01:00S 23°56' W 046°19'0 0.0
2018-Apr-08 00:24S 23°56' W 046°19'0 0.0
2018-Apr-08 00:00S 23°56' W 046°19'0 0.0
2018-Apr-07 23:29S 23°56' W 046°19'0 0.0
2018-Apr-07 22:56S 23°56' W 046°19'0 0.0
2018-Apr-07 22:30S 23°56' W 046°19'0 0.0
2018-Apr-07 21:59S 23°56' W 046°19'0 0.0
2018-Apr-07 21:28S 23°56' W 046°19'0 0.0
2018-Apr-07 20:57S 23°56' W 046°19'0 0.2
2018-Apr-07 20:28S 23°56' W 046°19'3 5.6
2018-Apr-07 20:00S 23°58' W 046°18'4 6.8
2018-Apr-07 19:27S 24°01' W 046°20'  
Track history (hours):
 
Tides and Currents Weather Stations Pressure Air Temp Water Temp Dewpoint Dewpoint Depression Visibility Wind Speed Wind Dir Waves Ship Positions

Conti Darwin

Last reported at 2018-Apr-10 21:34 UTC. Time now 2018-Apr-21 07:59 UTC.
Position S 23°10' W 042°43'.
Warning: this ship's position is 10 days out of date.

Length 278 m; draft 13.5 m.

Type: Ship (hazmat cat A). MMSI: 255805831.

Date/timePositionNaut miles runAvg speedWind from/ knotsBaromVisibWave heightAir tempDewpointWater temp
2018-Apr-10 21:34S 23°10' W 042°43'113.5
2018-Apr-10 21:30S 23°10' W 042°43'613.3
2018-Apr-10 21:00S 23°07' W 042°50'713.3
2018-Apr-10 20:30S 23°04' W 042°57'713.2
2018-Apr-10 20:00S 23°02' W 043°03'612.5
2018-Apr-10 19:30S 22°59' W 043°09'5 9.7
2018-Apr-10 19:00S 22°54' W 043°09'3 6.9
2018-Apr-10 18:30S 22°52' W 043°12'0 0.9
2018-Apr-10 17:58S 22°53' W 043°13'0 0.0
2018-Apr-10 17:30S 22°53' W 043°13'0 0.0
2018-Apr-10 17:00S 22°53' W 043°13'0 0.0
2018-Apr-10 16:30S 22°53' W 043°13'0 0.0
2018-Apr-10 16:00S 22°53' W 043°13'0 0.0
2018-Apr-10 15:29S 22°53' W 043°13'0 0.0
2018-Apr-10 14:59S 22°53' W 043°13'0 0.0
2018-Apr-10 14:29S 22°53' W 043°13'0 0.0
2018-Apr-10 14:00S 22°53' W 043°13'0 0.0
2018-Apr-10 13:29S 22°53' W 043°13'1 1.1
2018-Apr-10 13:00S 22°53' W 043°12'3 5.6
2018-Apr-10 12:30S 22°53' W 043°09'611.7
2018-Apr-10 12:00S 22°59' W 043°09'3 6.9
2018-Apr-10 11:30S 23°02' W 043°06'4 8.7
2018-Apr-10 11:00S 23°03' W 043°01'3 6.4
2018-Apr-10 10:30S 23°04' W 042°58'0 0.2
2018-Apr-10 10:00S 23°04' W 042°58'0 0.1
2018-Apr-10 09:30S 23°04' W 042°58'0 0.0
2018-Apr-10 09:00S 23°04' W 042°58'0 0.0
2018-Apr-10 08:27S 23°04' W 042°58'0 0.0
2018-Apr-10 07:59S 23°04' W 042°58'0 0.0
2018-Apr-10 07:29S 23°04' W 042°58'0 0.0
2018-Apr-10 06:59S 23°04' W 042°58'0 0.0
2018-Apr-10 06:29S 23°04' W 042°58'0 0.0
2018-Apr-10 05:59S 23°04' W 042°58'0 0.0
2018-Apr-10 05:28S 23°04' W 042°58'0 0.0
2018-Apr-10 04:58S 23°04' W 042°58'0 0.0
2018-Apr-10 04:28S 23°04' W 042°58'0 0.0
2018-Apr-10 03:46S 23°04' W 042°58'0 0.0
2018-Apr-10 03:31S 23°04' W 042°58'0 0.0
2018-Apr-10 03:00S 23°04' W 042°58'0 0.1
2018-Apr-10 02:30S 23°04' W 042°58'0 0.0
2018-Apr-10 02:00S 23°04' W 042°58'0 0.0
2018-Apr-10 01:30S 23°04' W 042°58'0 0.0
2018-Apr-10 00:59S 23°04' W 042°58'0 0.0
2018-Apr-10 00:29S 23°04' W 042°58'0 0.0
2018-Apr-09 23:59S 23°04' W 042°58'0 0.0
2018-Apr-09 23:29S 23°04' W 042°58'0 0.0
2018-Apr-09 22:59S 23°04' W 042°58'0 0.0
2018-Apr-09 22:28S 23°04' W 042°58'0 0.0
2018-Apr-09 21:58S 23°04' W 042°58'0 0.1
2018-Apr-09 21:28S 23°04' W 042°58'0 0.1
2018-Apr-09 20:58S 23°04' W 042°58'0 0.1
2018-Apr-09 20:21S 23°04' W 042°58'0 0.1
2018-Apr-09 20:00S 23°04' W 042°58'0 0.0
2018-Apr-09 19:18S 23°04' W 042°58'0 0.1
2018-Apr-09 18:57S 23°04' W 042°58'0 0.1
2018-Apr-09 18:30S 23°04' W 042°58'0 0.0
2018-Apr-09 17:59S 23°04' W 042°58'0 0.0
2018-Apr-09 17:26S 23°04' W 042°58'0 0.0
2018-Apr-09 16:53S 23°04' W 042°58'0 0.0
2018-Apr-09 16:26S 23°04' W 042°58'0 0.0
2018-Apr-09 15:59S 23°04' W 042°58'0 0.0
2018-Apr-09 15:28S 23°04' W 042°58'0 0.1
2018-Apr-09 14:59S 23°04' W 042°58'0 0.1
2018-Apr-09 14:29S 23°04' W 042°58'0 0.1
2018-Apr-09 13:59S 23°04' W 042°58'0 0.1
2018-Apr-09 13:29S 23°04' W 042°58'0 0.1
2018-Apr-09 12:59S 23°04' W 042°58'0 0.1
2018-Apr-09 12:28S 23°04' W 042°58'0 0.1
2018-Apr-09 11:58S 23°04' W 042°58'0 0.1
2018-Apr-09 11:16S 23°04' W 042°58'0 0.1
2018-Apr-09 10:58S 23°04' W 042°58'0 0.1
2018-Apr-09 10:27S 23°04' W 042°58'0 0.0
2018-Apr-09 10:00S 23°04' W 042°58'0 0.0
2018-Apr-09 09:30S 23°04' W 042°58'0 0.6
2018-Apr-09 09:00S 23°04' W 042°58'5 9.7
2018-Apr-09 08:31S 23°05' W 043°03'3112.2
2018-Apr-09 06:00S 23°20' W 043°32'16310.8
2018-Apr-08 14:52S 24°06' W 046°23'512.0
2018-Apr-08 14:29S 24°02' W 046°21'4 7.6
2018-Apr-08 14:00S 23°60' W 046°18'3 6.3
2018-Apr-08 13:30S 23°56' W 046°19'1 2.1
2018-Apr-08 13:00S 23°56' W 046°19'0 0.0
2018-Apr-08 12:04S 23°56' W 046°19'0 0.0
2018-Apr-08 11:46S 23°56' W 046°19'0 0.0
2018-Apr-08 11:28S 23°56' W 046°19'0 0.0
2018-Apr-08 10:58S 23°56' W 046°19'0 0.0
2018-Apr-08 10:28S 23°56' W 046°19'0 0.0
2018-Apr-08 09:58S 23°56' W 046°19'0 0.0
2018-Apr-08 09:27S 23°56' W 046°19'0 0.0
2018-Apr-08 08:57S 23°56' W 046°19'0 0.0
2018-Apr-08 08:27S 23°56' W 046°19'0 0.0
2018-Apr-08 07:57S 23°56' W 046°19'0 0.0
2018-Apr-08 07:21S 23°56' W 046°19'0 0.0
2018-Apr-08 07:00S 23°56' W 046°19'0 0.0
2018-Apr-08 06:27S 23°56' W 046°19'0 0.0
2018-Apr-08 05:58S 23°56' W 046°19'0 0.0
2018-Apr-08 05:16S 23°56' W 046°19'0 0.0
2018-Apr-08 04:58S 23°56' W 046°19'0 0.0
2018-Apr-08 04:16S 23°56' W 046°19'0 0.0
2018-Apr-08 03:58S 23°56' W 046°19'0 0.0
2018-Apr-08 03:15S 23°56' W 046°19'0 0.0
2018-Apr-08 02:45S 23°56' W 046°19'0 0.0
2018-Apr-08 02:15S 23°56' W 046°19'0 0.0
2018-Apr-08 01:51S 23°56' W 046°19'0 0.0
2018-Apr-08 01:30S 23°56' W 046°19'0 0.0
2018-Apr-08 01:00S 23°56' W 046°19'0 0.0
2018-Apr-08 00:24S 23°56' W 046°19'0 0.0
2018-Apr-08 00:00S 23°56' W 046°19'0 0.0
2018-Apr-07 23:29S 23°56' W 046°19'0 0.0
2018-Apr-07 22:56S 23°56' W 046°19'0 0.0
2018-Apr-07 22:30S 23°56' W 046°19'0 0.0
2018-Apr-07 21:59S 23°56' W 046°19'0 0.0
2018-Apr-07 21:28S 23°56' W 046°19'0 0.0
2018-Apr-07 20:57S 23°56' W 046°19'0 0.2
2018-Apr-07 20:28S 23°56' W 046°19'3 5.6
2018-Apr-07 20:00S 23°58' W 046°18'4 6.8
2018-Apr-07 19:27S 24°01' W 046°20'  

Dump ship's entire track history